createdAt,value
2022-09-12T00:01:27.055Z,1.02
2022-09-12T00:03:58.944Z,0.70
2022-09-12T00:06:29.537Z,0.90
2022-09-12T00:08:58.715Z,1.10
2022-09-12T00:11:26.049Z,0.95
2022-09-12T00:13:57.204Z,0.88
2022-09-12T00:16:26.208Z,0.68
2022-09-12T00:18:53.544Z,0.88
2022-09-12T00:21:21.589Z,0.70
2022-09-12T00:23:48.795Z,0.95
2022-09-12T00:26:17.113Z,0.95
2022-09-12T00:28:44.994Z,1.00
2022-09-12T00:31:20.400Z,0.70
2022-09-12T00:33:47.309Z,0.90
2022-09-12T00:36:16.846Z,0.70
2022-09-12T00:38:44.201Z,0.70
2022-09-12T00:41:18.938Z,1.10
2022-09-12T00:43:51.931Z,0.90
2022-09-12T00:46:36.310Z,0.80
2022-09-12T00:49:49.704Z,1.10
2022-09-12T00:52:25.852Z,1.00
2022-09-12T00:54:57.904Z,0.77
2022-09-12T00:57:35.531Z,1.40
2022-09-12T01:00:16.396Z,1.00
2022-09-12T01:02:46.192Z,0.98
2022-09-12T01:05:13.752Z,0.93
2022-09-12T01:07:41.059Z,0.68
2022-09-12T01:10:09.671Z,0.90
2022-09-12T01:12:39.308Z,0.65
2022-09-12T01:15:07.175Z,1.00
2022-09-12T01:17:59.384Z,1.05
2022-09-12T01:20:52.948Z,1.20
2022-09-12T01:23:42.640Z,1.10
2022-09-12T01:26:33.928Z,0.77
2022-09-12T01:29:25.439Z,1.00
2022-09-12T01:32:14.514Z,1.10
2022-09-12T01:34:53.675Z,0.85
2022-09-12T01:37:54.931Z,1.48
2022-09-12T01:40:42.767Z,0.95
2022-09-12T01:43:38.911Z,0.98
2022-09-12T01:46:17.575Z,0.95
2022-09-12T01:49:00.088Z,0.80
2022-09-12T01:51:37.316Z,0.82
2022-09-12T01:54:09.733Z,0.70
2022-09-12T01:56:39.995Z,0.95
2022-09-12T01:59:24.868Z,1.00
2022-09-12T02:02:09.757Z,0.80
2022-09-12T02:04:51.434Z,1.00
2022-09-12T02:07:38.828Z,0.65
2022-09-12T02:10:22.463Z,0.80
2022-09-12T02:13:01.313Z,1.00
2022-09-12T02:15:34.980Z,1.20
2022-09-12T02:18:05.723Z,0.88
2022-09-12T02:20:47.908Z,0.90
2022-09-12T02:23:26.405Z,0.82
2022-09-12T02:25:57.850Z,0.95
2022-09-12T02:28:35.300Z,1.02
2022-09-12T02:31:22.966Z,1.20
2022-09-12T02:33:56.529Z,1.00
2022-09-12T02:36:28.842Z,0.88
2022-09-12T02:38:56.040Z,1.13
2022-09-12T02:41:23.111Z,1.17
2022-09-12T02:43:51.509Z,0.98
2022-09-12T02:46:26.941Z,1.00
2022-09-12T02:48:54.630Z,1.45
2022-09-12T02:51:23.784Z,1.08
2022-09-12T02:53:50.835Z,1.13
2022-09-12T02:56:25.436Z,1.00
2022-09-12T02:58:52.864Z,0.98
2022-09-12T03:01:36.040Z,1.08
2022-09-12T03:04:23.636Z,0.90
2022-09-12T03:07:14.143Z,1.00
2022-09-12T03:09:57.888Z,1.10
2022-09-12T03:12:45.786Z,1.08
2022-09-12T03:15:43.412Z,1.17
2022-09-12T03:18:28.445Z,1.20
2022-09-12T03:21:15.000Z,1.00
2022-09-12T03:24:16.092Z,0.93
2022-09-12T03:26:56.272Z,1.08
2022-09-12T03:29:26.179Z,1.35
2022-09-12T03:31:55.340Z,1.17
2022-09-12T03:34:23.152Z,1.05
2022-09-12T03:36:50.312Z,1.67
2022-09-12T03:39:17.996Z,0.93
2022-09-12T03:41:44.647Z,1.33
2022-09-12T03:44:11.177Z,0.90
2022-09-12T03:46:37.824Z,1.30
2022-09-12T03:49:04.635Z,1.15
2022-09-12T03:51:31.229Z,0.95
2022-09-12T03:53:57.816Z,1.38
2022-09-12T03:56:26.642Z,1.27
2022-09-12T03:58:53.159Z,1.00
2022-09-12T04:01:20.508Z,1.42
2022-09-12T04:03:50.633Z,1.38
2022-09-12T04:06:20.908Z,1.15
2022-09-12T04:08:52.912Z,1.17
2022-09-12T04:11:21.024Z,1.20
2022-09-12T04:13:48.508Z,0.95
2022-09-12T04:16:17.244Z,1.30
2022-09-12T04:18:44.714Z,1.25
2022-09-12T04:21:14.568Z,0.95
2022-09-12T04:23:41.383Z,1.30
2022-09-12T04:26:08.816Z,1.30
2022-09-12T04:28:37.698Z,1.20
2022-09-12T04:31:07.456Z,1.85
2022-09-12T04:33:35.707Z,1.65
2022-09-12T04:36:12.361Z,1.42
2022-09-12T04:38:40.491Z,1.20
2022-09-12T04:41:18.955Z,1.35
2022-09-12T04:43:46.965Z,1.70
2022-09-12T04:46:16.035Z,1.75
2022-09-12T04:48:43.682Z,1.25
2022-09-12T04:51:11.988Z,1.30
2022-09-12T04:53:38.966Z,1.40
2022-09-12T04:56:07.912Z,1.85
2022-09-12T04:58:35.083Z,1.60
2022-09-12T05:01:10.498Z,1.50
2022-09-12T05:03:40.675Z,2.17
2022-09-12T05:06:08.841Z,1.70
2022-09-12T05:08:35.738Z,1.73
2022-09-12T05:11:07.584Z,1.58
2022-09-12T05:13:34.336Z,1.92
2022-09-12T05:16:02.456Z,1.67
2022-09-12T05:18:31.164Z,1.88
2022-09-12T05:21:00.214Z,1.75
2022-09-12T05:23:27.638Z,1.50
2022-09-12T05:25:56.352Z,1.45
2022-09-12T05:28:23.559Z,1.55
2022-09-12T05:31:04.126Z,1.95
2022-09-12T05:33:31.968Z,1.80
2022-09-12T05:35:58.936Z,1.90
2022-09-12T05:38:25.957Z,1.85
2022-09-12T05:40:52.511Z,2.90
2022-09-12T05:43:20.211Z,1.95
2022-09-12T05:45:46.840Z,2.28
2022-09-12T05:48:13.520Z,1.77
2022-09-12T05:50:40.280Z,1.58
2022-09-12T05:53:08.460Z,1.92
2022-09-12T05:55:37.919Z,2.13
2022-09-12T05:58:04.484Z,2.70
2022-09-12T06:00:33.561Z,2.50
2022-09-12T06:03:01.366Z,2.55
2022-09-12T06:05:27.895Z,2.67
2022-09-12T06:07:54.384Z,3.30
2022-09-12T06:10:22.176Z,3.10
2022-09-12T06:12:48.792Z,4.15
2022-09-12T06:15:16.456Z,3.88
2022-09-12T06:17:43.063Z,4.18
2022-09-12T06:20:10.227Z,5.38
2022-09-12T06:22:36.796Z,4.10
2022-09-12T06:25:03.649Z,5.03
2022-09-12T06:27:30.219Z,5.40
2022-09-12T06:29:56.724Z,5.00
2022-09-12T06:32:23.279Z,4.25
2022-09-12T06:34:50.736Z,4.63
2022-09-12T06:37:17.286Z,4.57
2022-09-12T06:39:43.886Z,5.13
2022-09-12T06:42:10.577Z,4.97
2022-09-12T06:44:37.295Z,5.38
2022-09-12T06:47:04.262Z,4.88
2022-09-12T06:49:31.740Z,4.95
2022-09-12T06:51:58.324Z,4.85
2022-09-12T06:54:26.346Z,5.10
2022-09-12T06:56:52.924Z,5.90
2022-09-12T06:59:19.908Z,5.20
2022-09-12T07:01:46.590Z,4.93
2022-09-12T07:04:13.436Z,5.00
2022-09-12T07:06:42.777Z,5.20
2022-09-12T07:09:13.067Z,5.13
2022-09-12T07:11:41.562Z,4.25
2022-09-12T07:14:10.340Z,4.72
2022-09-12T07:16:37.428Z,5.18
2022-09-12T07:19:06.609Z,4.90
2022-09-12T07:21:36.317Z,5.25
2022-09-12T07:24:04.080Z,4.47
2022-09-12T07:26:30.697Z,4.45
2022-09-12T07:29:13.218Z,4.65
2022-09-12T07:31:46.009Z,4.53
2022-09-12T07:34:12.848Z,4.38
2022-09-12T07:36:39.555Z,4.78
2022-09-12T07:39:06.156Z,5.05
2022-09-12T07:41:35.801Z,4.97
2022-09-12T07:44:03.452Z,4.32
2022-09-12T07:46:31.569Z,4.13
2022-09-12T07:48:59.643Z,4.20
2022-09-12T07:51:27.933Z,4.22
2022-09-12T07:53:54.859Z,4.47
2022-09-12T07:59:13.530Z,4.47
2022-09-12T08:01:41.647Z,4.35
2022-09-12T08:04:08.311Z,5.00
2022-09-12T08:06:36.351Z,4.68
2022-09-12T08:09:03.717Z,4.00
2022-09-12T08:11:30.691Z,4.82
2022-09-12T08:13:58.054Z,5.13
2022-09-12T08:16:27.441Z,4.85
2022-09-12T08:18:54.193Z,5.30
2022-09-12T08:21:23.059Z,5.05
2022-09-12T08:23:55.468Z,5.40
2022-09-12T08:26:23.327Z,4.65
2022-09-12T08:28:50.376Z,4.05
2022-09-12T08:31:19.929Z,4.18
2022-09-12T08:33:46.896Z,4.65
2022-09-12T08:36:21.321Z,4.18
2022-09-12T08:38:49.996Z,3.67
2022-09-12T08:41:37.731Z,3.90
2022-09-12T08:44:42.166Z,2.75
2022-09-12T08:47:45.342Z,3.08
2022-09-12T08:50:17.595Z,2.60
2022-09-12T08:53:13.929Z,3.17
2022-09-12T08:55:46.119Z,2.50
2022-09-12T08:58:22.532Z,2.40
2022-09-12T09:00:50.199Z,2.65
2022-09-12T09:03:46.714Z,2.25
2022-09-12T09:06:50.785Z,1.85
2022-09-12T09:09:45.198Z,1.70
2022-09-12T09:12:11.774Z,2.00
2022-09-12T09:15:01.020Z,1.80
2022-09-12T09:17:43.496Z,1.70
2022-09-12T09:20:36.479Z,1.85
2022-09-12T09:23:27.892Z,1.60
2022-09-12T09:26:15.876Z,2.00
2022-09-12T09:28:52.724Z,1.88
2022-09-12T09:31:22.077Z,1.67
2022-09-12T09:33:51.327Z,1.90
2022-09-12T09:36:25.159Z,1.40
2022-09-12T09:39:12.780Z,1.80
2022-09-12T09:42:10.311Z,1.10
2022-09-12T09:44:37.799Z,1.15
2022-09-12T09:47:05.221Z,1.30
2022-09-12T09:49:34.707Z,1.05
2022-09-12T09:52:04.605Z,0.90
2022-09-12T09:54:39.696Z,0.90
2022-09-12T09:57:35.701Z,0.90
2022-09-12T10:00:27.174Z,0.82
2022-09-12T10:03:30.643Z,0.80
2022-09-12T10:06:05.879Z,1.17
2022-09-12T10:08:36.963Z,1.35
2022-09-12T10:11:18.531Z,0.98
2022-09-12T10:13:52.629Z,1.05
2022-09-12T10:16:22.893Z,1.50
2022-09-12T10:18:52.354Z,1.20
2022-09-12T10:21:32.691Z,1.20
2022-09-12T10:24:39.944Z,1.70
2022-09-12T10:27:32.799Z,1.35
2022-09-12T10:30:07.561Z,2.08
2022-09-12T10:32:48.908Z,2.28
2022-09-12T10:35:21.468Z,2.22
2022-09-12T10:37:53.792Z,2.17
2022-09-12T10:40:41.208Z,2.65
2022-09-12T10:43:38.667Z,2.15
2022-09-12T10:46:23.547Z,2.20
2022-09-12T10:48:52.780Z,1.70
2022-09-12T10:51:25.270Z,2.15
2022-09-12T10:53:56.446Z,1.88
2022-09-12T10:56:33.675Z,2.08
2022-09-12T10:59:13.359Z,1.98
2022-09-12T11:01:45.130Z,2.05
2022-09-12T11:04:28.528Z,1.60
2022-09-12T11:07:19.489Z,1.58
2022-09-12T11:10:09.511Z,1.77
2022-09-12T11:13:02.932Z,2.15
2022-09-12T11:15:44.515Z,1.60
2022-09-12T11:18:38.388Z,1.80
2022-09-12T11:21:45.037Z,1.70
2022-09-12T11:24:38.013Z,1.30
2022-09-12T11:27:35.879Z,1.20
2022-09-12T11:30:09.180Z,1.30
2022-09-12T11:33:24.378Z,1.17
2022-09-12T11:35:55.140Z,1.35
2022-09-12T11:38:37.351Z,1.20
2022-09-12T11:41:07.241Z,1.10
2022-09-12T11:43:39.972Z,1.63
2022-09-12T11:46:25.501Z,1.10
2022-09-12T11:48:57.616Z,1.10
2022-09-12T11:51:31.595Z,1.38
2022-09-12T11:54:14.203Z,0.90
2022-09-12T11:56:46.120Z,1.40
2022-09-12T11:59:28.708Z,1.15
2022-09-12T12:01:59.935Z,1.20
2022-09-12T12:04:39.057Z,1.13
2022-09-12T12:07:09.216Z,1.20
2022-09-12T12:09:44.018Z,1.00
2022-09-12T12:12:18.721Z,1.40
2022-09-12T12:14:48.856Z,1.33
2022-09-12T12:17:18.623Z,0.90
2022-09-12T12:19:46.967Z,1.35
2022-09-12T12:22:25.431Z,1.13
2022-09-12T12:25:28.872Z,1.33
2022-09-12T12:28:01.343Z,1.10
2022-09-12T12:30:30.922Z,0.82
2022-09-12T12:33:00.867Z,1.00
2022-09-12T12:35:37.152Z,1.33
2022-09-12T12:38:05.580Z,1.10
2022-09-12T12:40:32.720Z,1.48
2022-09-12T12:43:02.453Z,1.55
2022-09-12T12:45:29.057Z,1.40
2022-09-12T12:47:59.953Z,1.58
2022-09-12T12:50:31.335Z,1.48
2022-09-12T12:53:02.982Z,1.20
2022-09-12T12:55:41.540Z,1.45
2022-09-12T12:58:37.116Z,1.08
2022-09-12T13:01:09.659Z,1.10
2022-09-12T13:03:37.356Z,1.17
2022-09-12T13:06:07.627Z,1.30
2022-09-12T13:08:38.674Z,1.30
2022-09-12T13:11:16.909Z,1.20
2022-09-12T13:14:28.020Z,1.10
2022-09-12T13:16:59.808Z,1.42
2022-09-12T13:19:35.189Z,1.45
2022-09-12T13:22:05.375Z,1.50
2022-09-12T13:24:32.177Z,1.20
2022-09-12T13:26:59.348Z,1.45
2022-09-12T13:29:27.756Z,1.40
2022-09-12T13:31:56.462Z,1.15
2022-09-12T13:37:58.671Z,1.05
2022-09-12T13:41:14.256Z,1.80
2022-09-12T13:43:46.765Z,1.35
2022-09-12T13:46:22.312Z,1.40
2022-09-12T13:48:49.140Z,1.15
2022-09-12T13:51:26.247Z,1.30
2022-09-12T13:53:56.164Z,1.45
2022-09-12T13:56:22.748Z,1.75
2022-09-12T13:58:57.758Z,1.60
2022-09-12T14:01:37.832Z,1.48
2022-09-12T14:04:35.861Z,1.38
2022-09-12T14:07:11.295Z,1.25
2022-09-12T14:09:43.920Z,1.58
2022-09-12T14:12:33.357Z,1.50
2022-09-12T14:15:00.307Z,1.60
2022-09-12T14:17:39.340Z,1.85
2022-09-12T14:20:12.052Z,1.83
2022-09-12T14:22:39.473Z,1.80
2022-09-12T14:25:10.714Z,1.85
2022-09-12T14:27:45.673Z,1.92
2022-09-12T14:30:33.291Z,2.00
2022-09-12T14:33:18.482Z,1.40
2022-09-12T14:35:50.343Z,1.73
2022-09-12T14:38:16.805Z,1.92
2022-09-12T14:40:48.523Z,1.88
2022-09-12T14:43:26.068Z,2.08
2022-09-12T14:45:59.676Z,1.92
2022-09-12T14:48:31.883Z,1.75
2022-09-12T14:50:59.047Z,2.08
2022-09-12T14:53:35.610Z,1.90
2022-09-12T14:56:11.724Z,1.98
2022-09-12T14:58:41.445Z,2.20
2022-09-12T15:01:08.199Z,1.55
2022-09-12T15:03:49.955Z,1.50
2022-09-12T15:06:36.145Z,1.67
2022-09-12T15:09:08.156Z,1.92
2022-09-12T15:11:34.702Z,1.63
2022-09-12T15:14:12.928Z,1.48
2022-09-12T15:16:39.637Z,1.77
2022-09-12T15:19:06.164Z,1.75
2022-09-12T15:21:32.848Z,1.88
2022-09-12T15:23:59.384Z,1.85
2022-09-12T15:26:30.472Z,1.63
2022-09-12T15:28:57.544Z,2.00
2022-09-12T15:31:25.558Z,1.92
2022-09-12T15:33:52.540Z,1.80
2022-09-12T15:36:21.172Z,1.55
2022-09-12T15:38:48.424Z,1.42
2022-09-12T15:41:18.064Z,1.90
2022-09-12T15:43:45.548Z,1.88
2022-09-12T15:46:13.841Z,1.90
2022-09-12T15:48:40.590Z,2.10
2022-09-12T15:51:15.856Z,2.10
2022-09-12T15:53:43.381Z,2.17
2022-09-12T15:56:10.068Z,2.05
2022-09-12T15:58:49.803Z,2.15
2022-09-12T16:01:24.263Z,1.60
2022-09-12T16:03:51.039Z,2.05
2022-09-12T16:06:17.765Z,1.58
2022-09-12T16:08:44.351Z,1.80
2022-09-12T16:11:23.129Z,1.90
2022-09-12T16:13:51.348Z,2.00
2022-09-12T16:16:17.898Z,1.90
2022-09-12T16:18:44.467Z,2.22
2022-09-12T16:21:14.898Z,1.98
2022-09-12T16:23:46.201Z,2.30
2022-09-12T16:26:13.093Z,1.80
2022-09-12T16:28:40.193Z,1.95
2022-09-12T16:31:08.818Z,2.28
2022-09-12T16:33:37.340Z,2.72
2022-09-12T16:36:09.618Z,2.47
2022-09-12T16:38:44.455Z,1.63
2022-09-12T16:41:11.898Z,2.05
2022-09-12T16:43:38.851Z,2.28
2022-09-12T16:46:08.635Z,2.33
2022-09-12T16:48:35.962Z,2.30
2022-09-12T16:51:06.705Z,2.22
2022-09-12T16:53:35.595Z,2.75
2022-09-12T16:56:02.531Z,2.70
2022-09-12T16:58:32.775Z,2.53
2022-09-12T17:01:04.332Z,2.40
2022-09-12T17:03:32.239Z,2.50
2022-09-12T17:06:04.809Z,2.42
2022-09-12T17:08:34.228Z,2.00
2022-09-12T17:11:09.618Z,2.15
2022-09-12T17:14:00.262Z,2.50
2022-09-12T17:16:23.643Z,2.33
2022-09-12T17:18:52.088Z,2.33
2022-09-12T17:21:19.204Z,2.55
2022-09-12T17:23:46.144Z,1.88
2022-09-12T17:26:13.113Z,1.90
2022-09-12T17:28:40.227Z,2.28
2022-09-12T17:31:09.380Z,1.80
2022-09-12T17:33:36.693Z,2.00
2022-09-12T17:36:05.194Z,1.85
2022-09-12T17:38:34.627Z,1.70
2022-09-12T17:41:17.450Z,1.80
2022-09-12T17:43:45.940Z,1.90
2022-09-12T17:46:13.117Z,1.98
2022-09-12T17:48:39.856Z,1.83
2022-09-12T17:51:11.796Z,1.98
2022-09-12T17:53:38.344Z,1.95
2022-09-12T17:56:06.480Z,2.33
2022-09-12T17:58:33.974Z,2.20
2022-09-12T18:01:29.208Z,2.00
2022-09-12T18:03:57.660Z,1.92
2022-09-12T18:06:24.690Z,1.90
2022-09-12T18:08:51.603Z,1.95
2022-09-12T18:14:14.000Z,2.40
2022-09-12T18:16:41.282Z,2.10
2022-09-12T18:19:07.995Z,2.15
2022-09-12T18:21:34.556Z,2.13
2022-09-12T18:24:01.605Z,2.05
2022-09-12T18:26:29.087Z,2.30
2022-09-12T18:28:55.852Z,2.10
2022-09-12T18:31:25.014Z,2.60
2022-09-12T18:33:51.700Z,3.20
2022-09-12T18:36:19.288Z,3.05
2022-09-12T18:38:46.487Z,2.70
2022-09-12T18:41:15.691Z,2.85
2022-09-12T18:43:42.435Z,2.72
2022-09-12T18:46:17.152Z,2.47
2022-09-12T18:48:44.944Z,2.65
2022-09-12T18:54:14.061Z,2.25
2022-09-12T18:56:43.436Z,2.50
2022-09-12T18:59:12.696Z,2.65
2022-09-12T19:01:39.396Z,2.67
2022-09-12T19:04:07.815Z,2.40
2022-09-12T19:06:39.786Z,2.80
2022-09-12T19:09:08.420Z,2.55
2022-09-12T19:11:36.886Z,2.90
2022-09-12T19:14:03.820Z,3.00
2022-09-12T19:16:30.815Z,2.35
2022-09-12T19:18:58.704Z,2.70
2022-09-12T19:21:28.221Z,2.85
2022-09-12T19:24:03.850Z,3.03
2022-09-12T19:26:32.071Z,3.03
2022-09-12T19:28:58.975Z,2.50
2022-09-12T19:31:25.957Z,3.08
2022-09-12T19:33:52.758Z,2.63
2022-09-12T19:36:43.838Z,2.80
2022-09-12T19:39:08.561Z,3.13
2022-09-12T19:41:35.764Z,3.28
2022-09-12T19:44:03.932Z,2.92
2022-09-12T19:46:30.573Z,3.08
2022-09-12T19:48:57.176Z,2.53
2022-09-12T19:51:24.110Z,2.80
2022-09-12T19:53:51.139Z,2.83
2022-09-12T19:56:17.695Z,2.75
2022-09-12T19:58:46.567Z,2.95
2022-09-12T20:01:29.862Z,3.33
2022-09-12T20:03:57.579Z,2.55
2022-09-12T20:06:24.746Z,2.90
2022-09-12T20:08:51.955Z,2.67
2022-09-12T20:11:20.703Z,3.10
2022-09-12T20:13:47.501Z,2.50
2022-09-12T20:16:22.127Z,2.88
2022-09-12T20:18:53.938Z,2.55
2022-09-12T20:21:26.590Z,2.95
2022-09-12T20:23:53.284Z,2.60
2022-09-12T20:26:20.296Z,2.72
2022-09-12T20:28:47.361Z,2.50
2022-09-12T20:31:16.183Z,2.58
2022-09-12T20:33:43.554Z,2.67
2022-09-12T20:36:15.934Z,2.17
2022-09-12T20:38:47.732Z,2.97
2022-09-12T20:41:14.559Z,2.80
2022-09-12T20:43:41.154Z,3.08
2022-09-12T20:46:12.127Z,2.58
2022-09-12T20:48:39.219Z,2.70
2022-09-12T20:51:06.846Z,2.88
2022-09-12T20:53:35.270Z,2.90
2022-09-12T20:56:03.048Z,2.78
2022-09-12T20:58:29.679Z,2.58
2022-09-12T21:00:56.784Z,2.25
2022-09-12T21:03:23.485Z,2.78
2022-09-12T21:05:50.078Z,2.40
2022-09-12T21:08:16.842Z,2.72
2022-09-12T21:10:44.414Z,2.92
2022-09-12T21:13:12.455Z,2.53
2022-09-12T21:15:40.221Z,2.72
2022-09-12T21:18:07.305Z,3.08
2022-09-12T21:20:34.376Z,2.38
2022-09-12T21:23:01.171Z,2.35
2022-09-12T21:25:29.028Z,2.33
2022-09-12T21:27:55.695Z,2.45
2022-09-12T21:30:22.692Z,2.53
2022-09-12T21:32:49.285Z,3.05
2022-09-12T21:35:15.986Z,2.42
2022-09-12T21:37:42.730Z,2.78
2022-09-12T21:40:09.783Z,2.42
2022-09-12T21:42:36.531Z,2.00
2022-09-12T21:45:03.333Z,2.28
2022-09-12T21:47:30.235Z,2.42
2022-09-12T21:49:57.533Z,2.40
2022-09-12T21:52:24.130Z,2.30
2022-09-12T21:54:50.733Z,2.65
2022-09-12T21:57:17.492Z,2.45
2022-09-12T21:59:44.210Z,1.95
2022-09-12T22:02:12.289Z,2.50
2022-09-12T22:04:39.014Z,2.47
2022-09-12T22:07:05.739Z,2.17
2022-09-12T22:09:34.316Z,2.70
2022-09-12T22:12:02.281Z,2.20
2022-09-12T22:14:29.477Z,2.08
2022-09-12T22:16:56.688Z,2.30
2022-09-12T22:19:23.262Z,2.28
2022-09-12T22:22:08.746Z,2.00
2022-09-12T22:24:35.365Z,1.92
2022-09-12T22:27:04.124Z,2.13
2022-09-12T22:29:30.735Z,2.15
2022-09-12T22:31:58.962Z,2.05
2022-09-12T22:34:26.445Z,2.20
2022-09-12T22:36:53.184Z,2.20
2022-09-12T22:39:19.973Z,2.08
2022-09-12T22:41:46.734Z,1.73
2022-09-12T22:44:13.323Z,2.70
2022-09-12T22:46:40.155Z,1.83
2022-09-12T22:49:07.439Z,2.10
2022-09-12T22:51:34.143Z,1.98
2022-09-12T22:54:00.660Z,1.83
2022-09-12T22:56:27.691Z,2.30
2022-09-12T22:58:54.314Z,2.13
2022-09-12T23:01:21.249Z,2.47
2022-09-12T23:03:48.046Z,2.33
2022-09-12T23:06:14.755Z,2.05
2022-09-12T23:08:41.360Z,2.05
2022-09-12T23:11:14.110Z,2.30
2022-09-12T23:13:45.866Z,2.28
2022-09-12T23:16:21.266Z,2.05
2022-09-12T23:18:48.929Z,2.20
2022-09-12T23:21:18.193Z,2.17
2022-09-12T23:23:45.009Z,1.92
2022-09-12T23:26:15.479Z,2.60
2022-09-12T23:28:47.413Z,2.17
2022-09-12T23:31:14.213Z,2.20
2022-09-12T23:33:40.780Z,1.85
2022-09-12T23:36:14.158Z,2.17
2022-09-12T23:38:42.828Z,1.85
2022-09-12T23:41:09.725Z,2.08
2022-09-12T23:43:36.763Z,2.22
2022-09-12T23:46:04.580Z,2.20
2022-09-12T23:48:31.992Z,2.00
2022-09-12T23:50:59.210Z,2.08
2022-09-12T23:53:26.276Z,2.33
2022-09-12T23:55:54.106Z,2.08
2022-09-12T23:58:22.439Z,2.20
